TSC558 CYYZ-MUVR
Flight info
| Callsign | TSC558 |
|---|---|
| Flight time | 2h 57m |
| Altitude | 34000 |
| Route | BETES3 AIRRA Q103 SLOJO DCT GURGE Q93 WOPNR Q97 DEBRL/N0447F350 Q97 EBAYY/N0452F340 Q93 MCLAW Y442 FUNDI LETOV2 |
| Aircraft | A21N/M-SDE2E3FGHIJ1RWXY/LB1 |
Departure
| Time | 2026-05-06 13:51 |
|---|---|
| Airport | Toronto Pearson International Airport (CYYZ) |
Arrival
| Time | 2026-05-06 16:49 |
|---|---|
| Airport | Juan Gualberto Gomez International Airport (MUVR) |
| Time | Latitude | Longitude | Altitude | Speed | Heading |
|---|---|---|---|---|---|
| 2026-05-06 13:12 | 43.68428 | -79.62050 | 567 ft | 0 kts | 107° |
| 2026-05-06 13:39 | 43.68433 | -79.62074 | 567 ft | 3 kts | 109° |
| 2026-05-06 13:39 | 43.68440 | -79.62101 | 568 ft | 3 kts | 112° |
| 2026-05-06 13:39 | 43.68449 | -79.62127 | 575 ft | 3 kts | 117° |
| 2026-05-06 13:39 | 43.68459 | -79.62152 | 567 ft | 3 kts | 123° |
| 2026-05-06 13:40 | 43.68471 | -79.62174 | 571 ft | 4 kts | 136° |
| 2026-05-06 13:40 | 43.68485 | -79.62188 | 569 ft | 2 kts | 154° |
| 2026-05-06 13:40 | 43.68475 | -79.62179 | 567 ft | 3 kts | 143° |
| 2026-05-06 13:40 | 43.68458 | -79.62167 | 567 ft | 3 kts | 167° |
| 2026-05-06 13:41 | 43.68441 | -79.62171 | 572 ft | 1 kts | 197° |
| 2026-05-06 13:41 | 43.68441 | -79.62172 | 572 ft | 0 kts | 197° |
| 2026-05-06 13:43 | 43.68434 | -79.62174 | 575 ft | 3 kts | 197° |
| 2026-05-06 13:43 | 43.68406 | -79.62186 | 572 ft | 5 kts | 197° |
| 2026-05-06 13:44 | 43.68366 | -79.62208 | 573 ft | 7 kts | 212° |
| 2026-05-06 13:44 | 43.68327 | -79.62262 | 569 ft | 9 kts | 224° |
| 2026-05-06 13:44 | 43.68295 | -79.62342 | 572 ft | 11 kts | 261° |
| 2026-05-06 13:44 | 43.68251 | -79.62430 | 574 ft | 13 kts | 220° |
| 2026-05-06 13:45 | 43.68180 | -79.62503 | 571 ft | 15 kts | 169° |
| 2026-05-06 13:45 | 43.68016 | -79.62293 | 570 ft | 18 kts | 136° |
| 2026-05-06 13:45 | 43.67919 | -79.62178 | 574 ft | 19 kts | 155° |
| 2026-05-06 13:46 | 43.67800 | -79.62087 | 575 ft | 21 kts | 130° |
| 2026-05-06 13:46 | 43.67693 | -79.61942 | 572 ft | 22 kts | 137° |
| 2026-05-06 13:46 | 43.67580 | -79.61793 | 572 ft | 24 kts | 136° |
| 2026-05-06 13:46 | 43.67458 | -79.61633 | 573 ft | 25 kts | 136° |
| 2026-05-06 13:47 | 43.67331 | -79.61467 | 573 ft | 26 kts | 137° |
| 2026-05-06 13:47 | 43.67241 | -79.61354 | 573 ft | 5 kts | 139° |
| 2026-05-06 13:47 | 43.67201 | -79.61344 | 575 ft | 8 kts | 228° |
| 2026-05-06 13:47 | 43.67158 | -79.61409 | 571 ft | 10 kts | 218° |
| 2026-05-06 13:48 | 43.67094 | -79.61476 | 573 ft | 13 kts | 217° |
| 2026-05-06 13:48 | 43.67022 | -79.61562 | 576 ft | 14 kts | 223° |
| 2026-05-06 13:48 | 43.66946 | -79.61659 | 574 ft | 16 kts | 223° |
| 2026-05-06 13:48 | 43.66863 | -79.61764 | 576 ft | 17 kts | 223° |
| 2026-05-06 13:49 | 43.66772 | -79.61879 | 577 ft | 18 kts | 223° |
| 2026-05-06 13:49 | 43.66676 | -79.62000 | 572 ft | 19 kts | 223° |
| 2026-05-06 13:49 | 43.66576 | -79.62124 | 569 ft | 20 kts | 220° |
| 2026-05-06 13:49 | 43.66471 | -79.62255 | 571 ft | 21 kts | 223° |
| 2026-05-06 13:50 | 43.66362 | -79.62393 | 567 ft | 22 kts | 225° |
| 2026-05-06 13:50 | 43.66238 | -79.62500 | 569 ft | 23 kts | 161° |
| 2026-05-06 13:50 | 43.66138 | -79.62387 | 571 ft | 15 kts | 138° |
| 2026-05-06 13:50 | 43.66134 | -79.62301 | 575 ft | 11 kts | 41° |
| 2026-05-06 13:51 | 43.66216 | -79.62181 | 570 ft | 37 kts | 47° |
| 2026-05-06 13:51 | 43.66575 | -79.61654 | 564 ft | 113 kts | 48° |
| 2026-05-06 13:51 | 43.67272 | -79.60636 | 583 ft | 176 kts | 48° |
| 2026-05-06 13:51 | 43.68057 | -79.59443 | 1419 ft | 171 kts | 47° |
| 2026-05-06 13:52 | 43.68885 | -79.58222 | 2218 ft | 171 kts | 48° |
| 2026-05-06 13:52 | 43.69693 | -79.57022 | 2914 ft | 168 kts | 49° |
| 2026-05-06 13:52 | 43.70509 | -79.55810 | 3401 ft | 180 kts | 48° |
| 2026-05-06 13:52 | 43.71378 | -79.54442 | 3776 ft | 199 kts | 58° |
| 2026-05-06 13:53 | 43.71792 | -79.52595 | 4232 ft | 214 kts | 86° |
| 2026-05-06 13:53 | 43.71611 | -79.50462 | 4623 ft | 237 kts | 114° |
| 2026-05-06 13:53 | 43.70530 | -79.48659 | 4989 ft | 256 kts | 148° |
| 2026-05-06 13:53 | 43.68816 | -79.47888 | 5623 ft | 264 kts | 172° |
| 2026-05-06 13:54 | 43.66966 | -79.47551 | 6409 ft | 270 kts | 173° |
| 2026-05-06 13:54 | 43.65090 | -79.47196 | 7237 ft | 274 kts | 173° |
| 2026-05-06 13:54 | 43.63209 | -79.46798 | 8030 ft | 278 kts | 172° |
| 2026-05-06 13:54 | 43.61279 | -79.46363 | 8816 ft | 282 kts | 172° |
| 2026-05-06 13:55 | 43.59388 | -79.45920 | 9560 ft | 285 kts | 172° |
| 2026-05-06 13:55 | 43.57405 | -79.45501 | 10236 ft | 293 kts | 177° |
| 2026-05-06 13:55 | 43.55375 | -79.45617 | 10546 ft | 308 kts | 193° |
| 2026-05-06 13:55 | 43.53337 | -79.46729 | 10817 ft | 324 kts | 213° |
| 2026-05-06 13:56 | 43.51504 | -79.48603 | 11213 ft | 337 kts | 220° |
| 2026-05-06 13:56 | 43.49663 | -79.50629 | 11849 ft | 341 kts | 220° |
| 2026-05-06 13:56 | 43.47787 | -79.52678 | 12597 ft | 344 kts | 219° |
| 2026-05-06 13:56 | 43.45901 | -79.54725 | 13359 ft | 346 kts | 219° |
| 2026-05-06 13:57 | 43.43989 | -79.56785 | 14092 ft | 350 kts | 219° |
| 2026-05-06 13:57 | 43.42085 | -79.58826 | 14772 ft | 352 kts | 219° |
| 2026-05-06 13:57 | 43.40137 | -79.60908 | 15434 ft | 356 kts | 219° |
| 2026-05-06 13:57 | 43.38173 | -79.63002 | 16075 ft | 359 kts | 219° |
| 2026-05-06 13:58 | 43.36178 | -79.65126 | 16704 ft | 362 kts | 219° |
| 2026-05-06 13:58 | 43.34180 | -79.67254 | 17317 ft | 366 kts | 219° |
| 2026-05-06 13:58 | 43.32148 | -79.69416 | 17942 ft | 369 kts | 219° |
| 2026-05-06 13:58 | 43.30109 | -79.71576 | 18547 ft | 372 kts | 219° |
| 2026-05-06 13:59 | 43.28071 | -79.73736 | 19098 ft | 375 kts | 219° |
| 2026-05-06 13:59 | 43.25912 | -79.75789 | 19646 ft | 380 kts | 211° |
| 2026-05-06 13:59 | 43.23455 | -79.77196 | 20186 ft | 386 kts | 199° |
| 2026-05-06 13:59 | 43.20835 | -79.78122 | 20722 ft | 390 kts | 197° |
| 2026-05-06 14:00 | 43.18179 | -79.78980 | 21234 ft | 393 kts | 197° |
| 2026-05-06 14:00 | 43.15541 | -79.79843 | 21739 ft | 396 kts | 197° |
| 2026-05-06 14:00 | 43.12854 | -79.80743 | 22235 ft | 399 kts | 197° |
| 2026-05-06 14:00 | 43.10148 | -79.81653 | 22711 ft | 401 kts | 197° |
| 2026-05-06 14:01 | 43.07422 | -79.82572 | 23160 ft | 404 kts | 197° |
| 2026-05-06 14:01 | 43.04669 | -79.83501 | 23607 ft | 406 kts | 197° |
| 2026-05-06 14:01 | 43.01911 | -79.84429 | 24038 ft | 409 kts | 197° |
| 2026-05-06 14:01 | 42.99135 | -79.85367 | 24476 ft | 412 kts | 198° |
| 2026-05-06 14:02 | 42.96383 | -79.86295 | 24920 ft | 413 kts | 198° |
| 2026-05-06 14:02 | 42.93575 | -79.87242 | 25357 ft | 415 kts | 197° |
| 2026-05-06 14:02 | 42.90763 | -79.88189 | 25777 ft | 416 kts | 197° |
| 2026-05-06 14:02 | 42.87941 | -79.89137 | 26155 ft | 418 kts | 197° |
| 2026-05-06 14:03 | 42.85109 | -79.90084 | 26548 ft | 421 kts | 197° |
| 2026-05-06 14:03 | 42.82266 | -79.90960 | 26962 ft | 424 kts | 195° |
| 2026-05-06 14:03 | 42.79357 | -79.91709 | 27361 ft | 425 kts | 194° |
| 2026-05-06 14:03 | 42.76437 | -79.92446 | 27731 ft | 428 kts | 194° |
| 2026-05-06 14:04 | 42.73501 | -79.93197 | 28103 ft | 429 kts | 194° |
| 2026-05-06 14:04 | 42.70554 | -79.93957 | 28452 ft | 431 kts | 194° |
| 2026-05-06 14:04 | 42.67589 | -79.94716 | 28786 ft | 434 kts | 194° |
| 2026-05-06 14:04 | 42.64620 | -79.95467 | 29203 ft | 433 kts | 194° |
| 2026-05-06 14:05 | 42.61659 | -79.96214 | 29642 ft | 431 kts | 194° |
| 2026-05-06 14:05 | 42.58741 | -79.96952 | 30065 ft | 429 kts | 194° |
| 2026-05-06 14:05 | 42.55813 | -79.97697 | 30468 ft | 428 kts | 194° |
| 2026-05-06 14:05 | 42.52890 | -79.98440 | 30831 ft | 427 kts | 194° |
| 2026-05-06 14:06 | 42.49976 | -79.99181 | 31169 ft | 426 kts | 194° |
| 2026-05-06 14:06 | 42.47050 | -79.99931 | 31479 ft | 426 kts | 194° |
| 2026-05-06 14:06 | 42.44137 | -80.00669 | 31798 ft | 425 kts | 194° |
| 2026-05-06 14:06 | 42.41219 | -80.01405 | 32113 ft | 424 kts | 194° |
| 2026-05-06 14:07 | 42.38323 | -80.02137 | 32396 ft | 424 kts | 194° |
| 2026-05-06 14:07 | 42.35455 | -80.02859 | 32682 ft | 423 kts | 194° |
| 2026-05-06 14:07 | 42.32557 | -80.03589 | 32937 ft | 421 kts | 194° |
| 2026-05-06 14:07 | 42.29673 | -80.04315 | 33131 ft | 422 kts | 194° |
| 2026-05-06 14:08 | 42.26773 | -80.05041 | 33345 ft | 422 kts | 194° |
| 2026-05-06 14:08 | 42.23842 | -80.05520 | 33567 ft | 426 kts | 187° |
| 2026-05-06 14:08 | 42.20877 | -80.05594 | 33788 ft | 426 kts | 185° |
| 2026-05-06 14:08 | 42.17925 | -80.05602 | 33902 ft | 429 kts | 185° |
| 2026-05-06 14:09 | 42.11950 | -80.05613 | 33890 ft | 428 kts | 185° |
| 2026-05-06 14:09 | 42.06014 | -80.05656 | 33873 ft | 428 kts | 185° |
| 2026-05-06 14:10 | 42.00042 | -80.05704 | 33871 ft | 428 kts | 185° |
| 2026-05-06 14:10 | 41.94083 | -80.05746 | 33872 ft | 428 kts | 185° |
| 2026-05-06 14:11 | 41.88151 | -80.05788 | 33871 ft | 428 kts | 185° |
| 2026-05-06 14:11 | 41.82178 | -80.05830 | 33869 ft | 428 kts | 185° |
| 2026-05-06 14:12 | 41.76241 | -80.05874 | 33871 ft | 428 kts | 185° |
| 2026-05-06 14:12 | 41.70274 | -80.05925 | 33873 ft | 428 kts | 185° |
| 2026-05-06 14:13 | 41.64305 | -80.05967 | 33871 ft | 429 kts | 185° |
| 2026-05-06 14:13 | 41.58311 | -80.06009 | 33867 ft | 430 kts | 185° |
| 2026-05-06 14:14 | 41.53337 | -80.06045 | 33866 ft | 430 kts | 185° |
| 2026-05-06 14:14 | 41.47352 | -80.06080 | 33861 ft | 430 kts | 185° |
| 2026-05-06 14:15 | 41.41349 | -80.06127 | 33858 ft | 431 kts | 185° |
| 2026-05-06 14:15 | 41.35370 | -80.06171 | 33862 ft | 431 kts | 185° |
| 2026-05-06 14:16 | 41.29360 | -80.06217 | 33863 ft | 433 kts | 186° |
| 2026-05-06 14:16 | 41.23360 | -80.06259 | 33861 ft | 434 kts | 186° |
| 2026-05-06 14:17 | 41.17303 | -80.06305 | 33860 ft | 435 kts | 186° |
| 2026-05-06 14:17 | 41.11244 | -80.06353 | 33861 ft | 435 kts | 186° |
| 2026-05-06 14:18 | 41.05163 | -80.06406 | 33859 ft | 436 kts | 186° |
| 2026-05-06 14:18 | 40.99121 | -80.06466 | 33858 ft | 437 kts | 186° |
| 2026-05-06 14:19 | 40.93024 | -80.06527 | 33859 ft | 438 kts | 186° |
| 2026-05-06 14:19 | 40.86920 | -80.06570 | 33860 ft | 439 kts | 186° |
| 2026-05-06 14:20 | 40.80836 | -80.06619 | 33855 ft | 439 kts | 186° |
| 2026-05-06 14:20 | 40.74716 | -80.06679 | 33852 ft | 440 kts | 186° |
| 2026-05-06 14:21 | 40.68577 | -80.06737 | 33851 ft | 441 kts | 187° |
| 2026-05-06 14:21 | 40.62419 | -80.06799 | 33851 ft | 442 kts | 187° |
| 2026-05-06 14:22 | 40.56297 | -80.06864 | 33850 ft | 443 kts | 187° |
| 2026-05-06 14:22 | 40.50117 | -80.06918 | 33850 ft | 444 kts | 187° |
| 2026-05-06 14:23 | 40.43923 | -80.06978 | 33849 ft | 444 kts | 187° |
| 2026-05-06 14:23 | 40.37737 | -80.07035 | 33842 ft | 445 kts | 187° |
| 2026-05-06 14:24 | 40.31558 | -80.07102 | 33840 ft | 446 kts | 187° |
| 2026-05-06 14:24 | 40.25334 | -80.07159 | 33842 ft | 445 kts | 187° |
| 2026-05-06 14:25 | 40.19123 | -80.07219 | 33851 ft | 446 kts | 187° |
| 2026-05-06 14:25 | 40.12935 | -80.07279 | 33866 ft | 447 kts | 187° |
| 2026-05-06 14:26 | 40.06710 | -80.07339 | 33872 ft | 446 kts | 187° |
| 2026-05-06 14:26 | 40.00533 | -80.07395 | 33871 ft | 446 kts | 187° |
| 2026-05-06 14:27 | 39.94311 | -80.07452 | 33870 ft | 446 kts | 187° |
| 2026-05-06 14:27 | 39.88099 | -80.07512 | 33857 ft | 445 kts | 187° |
| 2026-05-06 14:28 | 39.81929 | -80.07568 | 33852 ft | 445 kts | 187° |
| 2026-05-06 14:28 | 39.75725 | -80.07625 | 33849 ft | 446 kts | 187° |
| 2026-05-06 14:29 | 39.69516 | -80.07686 | 33842 ft | 446 kts | 187° |
| 2026-05-06 14:29 | 39.63293 | -80.07735 | 33842 ft | 446 kts | 187° |
| 2026-05-06 14:30 | 39.57107 | -80.07791 | 33841 ft | 446 kts | 187° |
| 2026-05-06 14:30 | 39.50895 | -80.07848 | 33839 ft | 446 kts | 187° |
| 2026-05-06 14:31 | 39.44659 | -80.07909 | 33846 ft | 448 kts | 187° |
| 2026-05-06 14:31 | 39.38425 | -80.07964 | 33844 ft | 448 kts | 187° |
| 2026-05-06 14:32 | 39.32228 | -80.08006 | 33840 ft | 447 kts | 187° |
| 2026-05-06 14:32 | 39.25997 | -80.08060 | 33841 ft | 448 kts | 187° |
| 2026-05-06 14:33 | 39.19763 | -80.08128 | 33847 ft | 448 kts | 187° |
| 2026-05-06 14:33 | 39.13517 | -80.08192 | 33849 ft | 448 kts | 187° |
| 2026-05-06 14:34 | 39.07304 | -80.08249 | 33859 ft | 448 kts | 187° |
| 2026-05-06 14:34 | 39.01048 | -80.08301 | 33859 ft | 448 kts | 187° |
| 2026-05-06 14:35 | 38.94789 | -80.08353 | 33868 ft | 449 kts | 187° |
| 2026-05-06 14:35 | 38.88736 | -80.09422 | 33871 ft | 436 kts | 201° |
| 2026-05-06 14:36 | 38.82891 | -80.11555 | 33879 ft | 435 kts | 202° |
| 2026-05-06 14:36 | 38.77072 | -80.13651 | 33878 ft | 437 kts | 201° |
| 2026-05-06 14:37 | 38.71205 | -80.15711 | 33879 ft | 437 kts | 201° |
| 2026-05-06 14:37 | 38.65322 | -80.17763 | 33880 ft | 437 kts | 201° |
| 2026-05-06 14:38 | 38.59431 | -80.19822 | 33891 ft | 439 kts | 201° |
| 2026-05-06 14:38 | 38.53556 | -80.21877 | 33901 ft | 440 kts | 201° |
| 2026-05-06 14:39 | 38.47649 | -80.23929 | 33891 ft | 439 kts | 201° |
| 2026-05-06 14:39 | 38.41738 | -80.25980 | 33893 ft | 439 kts | 201° |
| 2026-05-06 14:40 | 38.35865 | -80.28014 | 33899 ft | 440 kts | 201° |
| 2026-05-06 14:40 | 38.29933 | -80.30073 | 33911 ft | 440 kts | 201° |
| 2026-05-06 14:41 | 38.24039 | -80.32114 | 33923 ft | 441 kts | 201° |
| 2026-05-06 14:41 | 38.18108 | -80.34153 | 33934 ft | 439 kts | 201° |
| 2026-05-06 14:42 | 38.12229 | -80.36173 | 33941 ft | 440 kts | 201° |
| 2026-05-06 14:42 | 38.06300 | -80.38206 | 33952 ft | 441 kts | 201° |
| 2026-05-06 14:43 | 38.00406 | -80.40240 | 33961 ft | 441 kts | 201° |
| 2026-05-06 14:43 | 37.94468 | -80.42274 | 33959 ft | 441 kts | 201° |
| 2026-05-06 14:44 | 37.88517 | -80.44310 | 33961 ft | 442 kts | 201° |
| 2026-05-06 14:45 | 37.79639 | -80.47339 | 33953 ft | 442 kts | 201° |
| 2026-05-06 14:45 | 37.73689 | -80.49369 | 33959 ft | 442 kts | 201° |
| 2026-05-06 14:46 | 37.67752 | -80.51398 | 33969 ft | 442 kts | 201° |
| 2026-05-06 14:46 | 37.61843 | -80.53413 | 33972 ft | 442 kts | 201° |
| 2026-05-06 14:47 | 37.55900 | -80.55432 | 33979 ft | 442 kts | 201° |
| 2026-05-06 14:47 | 37.49941 | -80.57448 | 33988 ft | 443 kts | 201° |
| 2026-05-06 14:48 | 37.44012 | -80.59450 | 33995 ft | 443 kts | 201° |
| 2026-05-06 14:48 | 37.38032 | -80.61466 | 34002 ft | 443 kts | 201° |
| 2026-05-06 14:49 | 37.32093 | -80.63461 | 34009 ft | 443 kts | 201° |
| 2026-05-06 14:49 | 37.26129 | -80.65466 | 34006 ft | 443 kts | 201° |
| 2026-05-06 14:50 | 37.20158 | -80.67477 | 34009 ft | 444 kts | 201° |
| 2026-05-06 14:50 | 37.14226 | -80.69469 | 34005 ft | 443 kts | 201° |
| 2026-05-06 14:51 | 37.08163 | -80.71197 | 33991 ft | 452 kts | 191° |
| 2026-05-06 14:51 | 37.01836 | -80.71200 | 34005 ft | 458 kts | 184° |
| 2026-05-06 14:52 | 36.95457 | -80.70992 | 34002 ft | 457 kts | 184° |
| 2026-05-06 14:52 | 36.89107 | -80.70829 | 34011 ft | 458 kts | 185° |
| 2026-05-06 14:53 | 36.82728 | -80.70679 | 34016 ft | 457 kts | 185° |
| 2026-05-06 14:53 | 36.76386 | -80.70536 | 34017 ft | 458 kts | 185° |
| 2026-05-06 14:54 | 36.69994 | -80.70390 | 34022 ft | 458 kts | 185° |
| 2026-05-06 14:54 | 36.63600 | -80.70237 | 34020 ft | 458 kts | 184° |
| 2026-05-06 14:55 | 36.57258 | -80.70094 | 34029 ft | 459 kts | 185° |
| 2026-05-06 14:55 | 36.50870 | -80.69944 | 34040 ft | 459 kts | 184° |
| 2026-05-06 14:56 | 36.44484 | -80.69790 | 34027 ft | 458 kts | 185° |
| 2026-05-06 14:56 | 36.38105 | -80.69649 | 34030 ft | 460 kts | 184° |
| 2026-05-06 14:57 | 36.31683 | -80.69500 | 34027 ft | 460 kts | 185° |
| 2026-05-06 14:57 | 36.25311 | -80.69352 | 34028 ft | 461 kts | 184° |
| 2026-05-06 14:58 | 36.18878 | -80.69206 | 34047 ft | 461 kts | 184° |
| 2026-05-06 14:58 | 36.12452 | -80.69051 | 34036 ft | 461 kts | 184° |
| 2026-05-06 14:59 | 36.06078 | -80.68909 | 34039 ft | 461 kts | 184° |
| 2026-05-06 14:59 | 35.99649 | -80.68762 | 34032 ft | 462 kts | 184° |
| 2026-05-06 15:00 | 35.94279 | -80.68633 | 34037 ft | 463 kts | 184° |
| 2026-05-06 15:00 | 35.87856 | -80.68492 | 34045 ft | 463 kts | 184° |
| 2026-05-06 15:01 | 35.81377 | -80.68348 | 34038 ft | 465 kts | 184° |
| 2026-05-06 15:01 | 35.74888 | -80.68192 | 34028 ft | 465 kts | 184° |
| 2026-05-06 15:02 | 35.68405 | -80.68050 | 34020 ft | 466 kts | 184° |
| 2026-05-06 15:02 | 35.61954 | -80.67904 | 34038 ft | 464 kts | 184° |
| 2026-05-06 15:03 | 35.55521 | -80.67752 | 34035 ft | 459 kts | 184° |
| 2026-05-06 15:03 | 35.49119 | -80.67604 | 34047 ft | 460 kts | 184° |
| 2026-05-06 15:04 | 35.42742 | -80.67473 | 34050 ft | 459 kts | 184° |
| 2026-05-06 15:04 | 35.36342 | -80.67337 | 34057 ft | 460 kts | 184° |
| 2026-05-06 15:05 | 35.29923 | -80.67185 | 34059 ft | 461 kts | 184° |
| 2026-05-06 15:05 | 35.23543 | -80.67051 | 34053 ft | 460 kts | 184° |
| 2026-05-06 15:06 | 35.17131 | -80.66910 | 34050 ft | 461 kts | 184° |
| 2026-05-06 15:06 | 35.10700 | -80.66755 | 34048 ft | 461 kts | 184° |
| 2026-05-06 15:07 | 35.04323 | -80.66619 | 34043 ft | 460 kts | 184° |
| 2026-05-06 15:07 | 34.97903 | -80.66474 | 34048 ft | 460 kts | 184° |
| 2026-05-06 15:08 | 34.91529 | -80.66336 | 34045 ft | 461 kts | 184° |
| 2026-05-06 15:08 | 34.85088 | -80.66190 | 34049 ft | 461 kts | 184° |
| 2026-05-06 15:09 | 34.78685 | -80.66051 | 34050 ft | 462 kts | 184° |
| 2026-05-06 15:09 | 34.72253 | -80.65900 | 34055 ft | 462 kts | 184° |
| 2026-05-06 15:10 | 34.65850 | -80.65794 | 34059 ft | 460 kts | 186° |
| 2026-05-06 15:10 | 34.59593 | -80.66985 | 34066 ft | 453 kts | 197° |
| 2026-05-06 15:11 | 34.53433 | -80.68650 | 34066 ft | 453 kts | 197° |
| 2026-05-06 15:11 | 34.47257 | -80.70287 | 34071 ft | 454 kts | 197° |
| 2026-05-06 15:12 | 34.41090 | -80.71901 | 34076 ft | 455 kts | 197° |
| 2026-05-06 15:12 | 34.34883 | -80.73525 | 34080 ft | 455 kts | 197° |
| 2026-05-06 15:13 | 34.28700 | -80.75139 | 34084 ft | 455 kts | 197° |
| 2026-05-06 15:13 | 34.22538 | -80.76743 | 34079 ft | 455 kts | 197° |
| 2026-05-06 15:14 | 34.16340 | -80.78356 | 34083 ft | 455 kts | 197° |
| 2026-05-06 15:14 | 34.10175 | -80.79955 | 34079 ft | 455 kts | 197° |
| 2026-05-06 15:15 | 34.03972 | -80.81563 | 34085 ft | 455 kts | 197° |
| 2026-05-06 15:15 | 33.97765 | -80.83174 | 34075 ft | 455 kts | 197° |
| 2026-05-06 15:16 | 33.91547 | -80.84790 | 34071 ft | 457 kts | 197° |
| 2026-05-06 15:16 | 33.85356 | -80.86387 | 34073 ft | 458 kts | 197° |
| 2026-05-06 15:17 | 33.79115 | -80.87990 | 34077 ft | 458 kts | 197° |
| 2026-05-06 15:17 | 33.72917 | -80.89590 | 34083 ft | 458 kts | 197° |
| 2026-05-06 15:18 | 33.66682 | -80.91192 | 34079 ft | 458 kts | 197° |
| 2026-05-06 15:18 | 33.60441 | -80.92786 | 34091 ft | 458 kts | 197° |
| 2026-05-06 15:19 | 33.54231 | -80.94380 | 34093 ft | 457 kts | 197° |
| 2026-05-06 15:19 | 33.47996 | -80.95976 | 34099 ft | 457 kts | 197° |
| 2026-05-06 15:20 | 33.41794 | -80.97567 | 34099 ft | 458 kts | 197° |
| 2026-05-06 15:20 | 33.35540 | -80.99162 | 34101 ft | 458 kts | 197° |
| 2026-05-06 15:21 | 33.29287 | -81.00772 | 34101 ft | 459 kts | 197° |
| 2026-05-06 15:21 | 33.23082 | -81.02349 | 34108 ft | 458 kts | 197° |
| 2026-05-06 15:22 | 33.16821 | -81.03931 | 34109 ft | 459 kts | 197° |
| 2026-05-06 15:22 | 33.10557 | -81.05511 | 34109 ft | 459 kts | 197° |
| 2026-05-06 15:23 | 33.04354 | -81.07089 | 34110 ft | 460 kts | 197° |
| 2026-05-06 15:23 | 32.98084 | -81.08666 | 34110 ft | 459 kts | 197° |
| 2026-05-06 15:24 | 32.91808 | -81.10256 | 34104 ft | 459 kts | 197° |
| 2026-05-06 15:24 | 32.85583 | -81.11829 | 34114 ft | 458 kts | 197° |
| 2026-05-06 15:25 | 32.79329 | -81.13401 | 34106 ft | 460 kts | 197° |
| 2026-05-06 15:25 | 32.73091 | -81.14981 | 34105 ft | 459 kts | 197° |
| 2026-05-06 15:26 | 32.66834 | -81.16551 | 34115 ft | 459 kts | 197° |
| 2026-05-06 15:26 | 32.60607 | -81.18117 | 34116 ft | 460 kts | 197° |
| 2026-05-06 15:27 | 32.54345 | -81.19695 | 34113 ft | 459 kts | 197° |
| 2026-05-06 15:27 | 32.48083 | -81.21161 | 34110 ft | 463 kts | 191° |
| 2026-05-06 15:28 | 32.41594 | -81.21570 | 34122 ft | 467 kts | 187° |
| 2026-05-06 15:28 | 32.35084 | -81.21856 | 34120 ft | 465 kts | 187° |
| 2026-05-06 15:29 | 32.28647 | -81.22171 | 34124 ft | 465 kts | 188° |
| 2026-05-06 15:29 | 32.22162 | -81.22498 | 34130 ft | 466 kts | 187° |
| 2026-05-06 15:30 | 32.15714 | -81.22810 | 34125 ft | 466 kts | 187° |
| 2026-05-06 15:30 | 32.09224 | -81.23138 | 34122 ft | 465 kts | 187° |
| 2026-05-06 15:31 | 32.02751 | -81.23454 | 34125 ft | 466 kts | 187° |
| 2026-05-06 15:31 | 31.96288 | -81.23710 | 34086 ft | 470 kts | 182° |
| 2026-05-06 15:32 | 31.86480 | -81.22563 | 34099 ft | 473 kts | 178° |
| 2026-05-06 15:32 | 31.79927 | -81.21721 | 34101 ft | 473 kts | 178° |
| 2026-05-06 15:33 | 31.73351 | -81.20897 | 34106 ft | 476 kts | 178° |
| 2026-05-06 15:33 | 31.66796 | -81.20078 | 34110 ft | 473 kts | 178° |
| 2026-05-06 15:34 | 31.60260 | -81.19269 | 34113 ft | 475 kts | 178° |
| 2026-05-06 15:34 | 31.53685 | -81.18444 | 34112 ft | 475 kts | 178° |
| 2026-05-06 15:35 | 31.47138 | -81.17631 | 34119 ft | 474 kts | 178° |
| 2026-05-06 15:35 | 31.40552 | -81.16814 | 34121 ft | 474 kts | 178° |
| 2026-05-06 15:36 | 31.33982 | -81.16005 | 34112 ft | 475 kts | 178° |
| 2026-05-06 15:36 | 31.27420 | -81.15219 | 34110 ft | 475 kts | 178° |
| 2026-05-06 15:37 | 31.20897 | -81.14433 | 34113 ft | 473 kts | 178° |
| 2026-05-06 15:37 | 31.14329 | -81.13634 | 34121 ft | 474 kts | 178° |
| 2026-05-06 15:38 | 31.07776 | -81.12842 | 34112 ft | 474 kts | 178° |
| 2026-05-06 15:38 | 31.01195 | -81.12051 | 34110 ft | 474 kts | 178° |
| 2026-05-06 15:39 | 30.94621 | -81.11252 | 34119 ft | 474 kts | 178° |
| 2026-05-06 15:39 | 30.88080 | -81.10472 | 34120 ft | 474 kts | 178° |
| 2026-05-06 15:40 | 30.81505 | -81.09680 | 34121 ft | 474 kts | 178° |
| 2026-05-06 15:40 | 30.74939 | -81.08904 | 34121 ft | 474 kts | 178° |
| 2026-05-06 15:41 | 30.68394 | -81.08120 | 34120 ft | 475 kts | 178° |
| 2026-05-06 15:41 | 30.61821 | -81.07492 | 34125 ft | 470 kts | 185° |
| 2026-05-06 15:42 | 30.55285 | -81.07866 | 34140 ft | 469 kts | 187° |
| 2026-05-06 15:42 | 30.48799 | -81.08272 | 34133 ft | 469 kts | 187° |
| 2026-05-06 15:43 | 30.42265 | -81.08664 | 34131 ft | 470 kts | 187° |
| 2026-05-06 15:43 | 30.35767 | -81.09053 | 34127 ft | 469 kts | 187° |
| 2026-05-06 15:44 | 30.29216 | -81.09447 | 34129 ft | 470 kts | 187° |
| 2026-05-06 15:44 | 30.22668 | -81.09838 | 34133 ft | 471 kts | 187° |
| 2026-05-06 15:45 | 30.16163 | -81.10221 | 34136 ft | 470 kts | 187° |
| 2026-05-06 15:45 | 30.09599 | -81.10624 | 34139 ft | 471 kts | 187° |
| 2026-05-06 15:46 | 30.03083 | -81.11015 | 34140 ft | 471 kts | 187° |
| 2026-05-06 15:46 | 29.96514 | -81.11395 | 34139 ft | 471 kts | 187° |
| 2026-05-06 15:47 | 29.91057 | -81.11728 | 34139 ft | 472 kts | 187° |
| 2026-05-06 15:47 | 29.83419 | -81.12183 | 34141 ft | 471 kts | 187° |
| 2026-05-06 15:48 | 29.77921 | -81.12135 | 34142 ft | 477 kts | 179° |
| 2026-05-06 15:48 | 29.71292 | -81.11529 | 34138 ft | 478 kts | 179° |
| 2026-05-06 15:49 | 29.64653 | -81.10910 | 34132 ft | 478 kts | 179° |
| 2026-05-06 15:49 | 29.58044 | -81.10302 | 34130 ft | 478 kts | 179° |
| 2026-05-06 15:50 | 29.51401 | -81.09698 | 34130 ft | 478 kts | 179° |
| 2026-05-06 15:50 | 29.44803 | -81.09092 | 34131 ft | 477 kts | 179° |
| 2026-05-06 15:51 | 29.38149 | -81.08488 | 34132 ft | 477 kts | 179° |
| 2026-05-06 15:51 | 29.31560 | -81.07886 | 34131 ft | 476 kts | 179° |
| 2026-05-06 15:52 | 29.24933 | -81.07268 | 34136 ft | 477 kts | 179° |
| 2026-05-06 15:52 | 29.18317 | -81.06671 | 34135 ft | 477 kts | 179° |
| 2026-05-06 15:53 | 29.11742 | -81.06078 | 34139 ft | 476 kts | 179° |
| 2026-05-06 15:53 | 29.05115 | -81.05474 | 34134 ft | 477 kts | 179° |
| 2026-05-06 15:54 | 28.98521 | -81.04875 | 34131 ft | 476 kts | 179° |
| 2026-05-06 15:54 | 28.91913 | -81.04278 | 34128 ft | 476 kts | 178° |
| 2026-05-06 15:55 | 28.85338 | -81.03686 | 34135 ft | 476 kts | 179° |
| 2026-05-06 15:55 | 28.78708 | -81.03089 | 34129 ft | 477 kts | 179° |
| 2026-05-06 15:56 | 28.72138 | -81.02491 | 34131 ft | 476 kts | 178° |
| 2026-05-06 15:56 | 28.65528 | -81.01897 | 34133 ft | 475 kts | 179° |
| 2026-05-06 15:57 | 28.58928 | -81.01305 | 34129 ft | 475 kts | 178° |
| 2026-05-06 15:57 | 28.52334 | -81.00711 | 34133 ft | 475 kts | 178° |
| 2026-05-06 15:58 | 28.45768 | -81.00123 | 34134 ft | 475 kts | 178° |
| 2026-05-06 15:58 | 28.39163 | -80.99540 | 34143 ft | 475 kts | 178° |
| 2026-05-06 15:59 | 28.32561 | -80.98950 | 34141 ft | 475 kts | 178° |
| 2026-05-06 15:59 | 28.25999 | -80.98359 | 34145 ft | 475 kts | 178° |
| 2026-05-06 16:00 | 28.19390 | -80.97770 | 34145 ft | 475 kts | 178° |
| 2026-05-06 16:00 | 28.12838 | -80.97190 | 34133 ft | 474 kts | 178° |
| 2026-05-06 16:01 | 28.06230 | -80.96604 | 34135 ft | 476 kts | 178° |
| 2026-05-06 16:01 | 27.99668 | -80.96012 | 34129 ft | 475 kts | 178° |
| 2026-05-06 16:02 | 27.93082 | -80.95428 | 34138 ft | 474 kts | 178° |
| 2026-05-06 16:02 | 27.86488 | -80.94840 | 34139 ft | 475 kts | 178° |
| 2026-05-06 16:03 | 27.79932 | -80.94263 | 34132 ft | 475 kts | 178° |
| 2026-05-06 16:03 | 27.73327 | -80.93674 | 34126 ft | 475 kts | 178° |
| 2026-05-06 16:04 | 27.66720 | -80.93094 | 34123 ft | 475 kts | 178° |
| 2026-05-06 16:04 | 27.60171 | -80.92509 | 34120 ft | 475 kts | 178° |
| 2026-05-06 16:05 | 27.53562 | -80.91920 | 34118 ft | 475 kts | 178° |
| 2026-05-06 16:05 | 27.47003 | -80.91346 | 34121 ft | 474 kts | 178° |
| 2026-05-06 16:06 | 27.40397 | -80.90770 | 34121 ft | 475 kts | 178° |
| 2026-05-06 16:06 | 27.33844 | -80.90198 | 34116 ft | 475 kts | 178° |
| 2026-05-06 16:07 | 27.27221 | -80.89614 | 34110 ft | 475 kts | 178° |
| 2026-05-06 16:07 | 27.20652 | -80.89040 | 34107 ft | 474 kts | 178° |
| 2026-05-06 16:08 | 27.14072 | -80.88462 | 34110 ft | 474 kts | 178° |
| 2026-05-06 16:08 | 27.07529 | -80.87894 | 34114 ft | 474 kts | 178° |
| 2026-05-06 16:09 | 27.00925 | -80.87314 | 34113 ft | 474 kts | 178° |
| 2026-05-06 16:09 | 26.94385 | -80.86739 | 34120 ft | 474 kts | 178° |
| 2026-05-06 16:10 | 26.87786 | -80.86166 | 34121 ft | 474 kts | 178° |
| 2026-05-06 16:10 | 26.81238 | -80.85594 | 34121 ft | 474 kts | 178° |
| 2026-05-06 16:11 | 26.74650 | -80.85024 | 34122 ft | 474 kts | 178° |
| 2026-05-06 16:11 | 26.68058 | -80.84454 | 34121 ft | 474 kts | 178° |
| 2026-05-06 16:12 | 26.61514 | -80.83890 | 34128 ft | 474 kts | 178° |
| 2026-05-06 16:12 | 26.54916 | -80.83320 | 34123 ft | 474 kts | 178° |
| 2026-05-06 16:13 | 26.48359 | -80.82753 | 34121 ft | 474 kts | 178° |
| 2026-05-06 16:13 | 26.41781 | -80.82585 | 34124 ft | 472 kts | 187° |
| 2026-05-06 16:14 | 26.35219 | -80.83356 | 34127 ft | 472 kts | 188° |
| 2026-05-06 16:14 | 26.28703 | -80.84071 | 34132 ft | 474 kts | 188° |
| 2026-05-06 16:15 | 26.22128 | -80.84750 | 34129 ft | 473 kts | 188° |
| 2026-05-06 16:15 | 26.15548 | -80.85430 | 34132 ft | 474 kts | 187° |
| 2026-05-06 16:16 | 26.08991 | -80.86102 | 34131 ft | 473 kts | 187° |
| 2026-05-06 16:16 | 26.02463 | -80.86778 | 34128 ft | 473 kts | 188° |
| 2026-05-06 16:17 | 25.95887 | -80.87458 | 34121 ft | 473 kts | 187° |
| 2026-05-06 16:17 | 25.89339 | -80.88138 | 34125 ft | 471 kts | 187° |
| 2026-05-06 16:18 | 25.82818 | -80.88810 | 34126 ft | 472 kts | 187° |
| 2026-05-06 16:18 | 25.76269 | -80.89482 | 34122 ft | 472 kts | 187° |
| 2026-05-06 16:19 | 25.69708 | -80.90158 | 34121 ft | 472 kts | 187° |
| 2026-05-06 16:19 | 25.63205 | -80.90825 | 34120 ft | 472 kts | 187° |
| 2026-05-06 16:20 | 25.56651 | -80.91495 | 34121 ft | 471 kts | 187° |
| 2026-05-06 16:20 | 25.50120 | -80.92165 | 34121 ft | 471 kts | 187° |
| 2026-05-06 16:21 | 25.43619 | -80.92830 | 34120 ft | 471 kts | 187° |
| 2026-05-06 16:21 | 25.37083 | -80.93500 | 34122 ft | 471 kts | 187° |
| 2026-05-06 16:22 | 25.30546 | -80.94166 | 34115 ft | 471 kts | 187° |
| 2026-05-06 16:22 | 25.24050 | -80.94828 | 34112 ft | 470 kts | 187° |
| 2026-05-06 16:23 | 25.17523 | -80.95496 | 34111 ft | 469 kts | 187° |
| 2026-05-06 16:23 | 25.11022 | -80.96158 | 34109 ft | 470 kts | 187° |
| 2026-05-06 16:24 | 25.04528 | -80.96816 | 34111 ft | 470 kts | 187° |
| 2026-05-06 16:24 | 24.97993 | -80.97474 | 34110 ft | 470 kts | 187° |
| 2026-05-06 16:25 | 24.91462 | -80.98138 | 34112 ft | 470 kts | 187° |
| 2026-05-06 16:25 | 24.84974 | -80.98793 | 34111 ft | 470 kts | 187° |
| 2026-05-06 16:26 | 24.78455 | -80.99451 | 34110 ft | 468 kts | 187° |
| 2026-05-06 16:26 | 24.72045 | -81.00096 | 34107 ft | 464 kts | 187° |
| 2026-05-06 16:27 | 24.65551 | -81.00758 | 34113 ft | 469 kts | 187° |
| 2026-05-06 16:27 | 24.59057 | -81.01418 | 34113 ft | 471 kts | 187° |
| 2026-05-06 16:28 | 24.52506 | -81.01676 | 34110 ft | 471 kts | 181° |
| 2026-05-06 16:28 | 24.45941 | -81.01605 | 34112 ft | 471 kts | 181° |
| 2026-05-06 16:29 | 24.39415 | -81.01544 | 33531 ft | 465 kts | 181° |
| 2026-05-06 16:29 | 24.36160 | -81.01516 | 32695 ft | 468 kts | 181° |
| 2026-05-06 16:29 | 24.32913 | -81.01491 | 31935 ft | 469 kts | 181° |
| 2026-05-06 16:30 | 24.29647 | -81.01463 | 31279 ft | 468 kts | 181° |
| 2026-05-06 16:30 | 24.27496 | -81.01447 | 30869 ft | 465 kts | 181° |
| 2026-05-06 16:30 | 24.23207 | -81.01411 | 30075 ft | 461 kts | 181° |
| 2026-05-06 16:30 | 24.20012 | -81.01385 | 29463 ft | 458 kts | 180° |
| 2026-05-06 16:31 | 24.16827 | -81.01356 | 28860 ft | 455 kts | 180° |
| 2026-05-06 16:31 | 24.13663 | -81.01329 | 28287 ft | 451 kts | 181° |
| 2026-05-06 16:31 | 24.10536 | -81.01304 | 27709 ft | 448 kts | 181° |
| 2026-05-06 16:31 | 24.07424 | -81.01279 | 27087 ft | 445 kts | 181° |
| 2026-05-06 16:32 | 24.04376 | -81.01253 | 26488 ft | 442 kts | 180° |
| 2026-05-06 16:32 | 24.01300 | -81.01260 | 25870 ft | 439 kts | 184° |
| 2026-05-06 16:32 | 23.98314 | -81.01826 | 25269 ft | 431 kts | 199° |
| 2026-05-06 16:32 | 23.95524 | -81.02888 | 24693 ft | 427 kts | 202° |
| 2026-05-06 16:33 | 23.92745 | -81.04024 | 24090 ft | 425 kts | 202° |
| 2026-05-06 16:33 | 23.89986 | -81.05147 | 23502 ft | 422 kts | 202° |
| 2026-05-06 16:33 | 23.87237 | -81.06247 | 22933 ft | 418 kts | 201° |
| 2026-05-06 16:34 | 23.81783 | -81.08393 | 21763 ft | 413 kts | 201° |
| 2026-05-06 16:34 | 23.79992 | -81.09095 | 21375 ft | 412 kts | 201° |
| 2026-05-06 16:34 | 23.77295 | -81.10151 | 20780 ft | 409 kts | 201° |
| 2026-05-06 16:34 | 23.74617 | -81.11191 | 20228 ft | 406 kts | 200° |
| 2026-05-06 16:35 | 23.71965 | -81.12221 | 19693 ft | 402 kts | 200° |
| 2026-05-06 16:35 | 23.69336 | -81.13249 | 19171 ft | 398 kts | 200° |
| 2026-05-06 16:35 | 23.65888 | -81.14597 | 18514 ft | 395 kts | 200° |
| 2026-05-06 16:35 | 23.64168 | -81.15271 | 18187 ft | 394 kts | 200° |
| 2026-05-06 16:36 | 23.61582 | -81.16284 | 17699 ft | 393 kts | 200° |
| 2026-05-06 16:36 | 23.59009 | -81.17294 | 17199 ft | 392 kts | 200° |
| 2026-05-06 16:36 | 23.56463 | -81.18292 | 16708 ft | 391 kts | 200° |
| 2026-05-06 16:36 | 23.53905 | -81.19294 | 16218 ft | 390 kts | 200° |
| 2026-05-06 16:37 | 23.51353 | -81.20292 | 15726 ft | 388 kts | 200° |
| 2026-05-06 16:37 | 23.48842 | -81.21298 | 15244 ft | 380 kts | 202° |
| 2026-05-06 16:37 | 23.46427 | -81.22430 | 14760 ft | 374 kts | 204° |
| 2026-05-06 16:37 | 23.44068 | -81.23565 | 14277 ft | 367 kts | 205° |
| 2026-05-06 16:38 | 23.41770 | -81.24673 | 13791 ft | 362 kts | 205° |
| 2026-05-06 16:38 | 23.39478 | -81.25774 | 13335 ft | 356 kts | 204° |
| 2026-05-06 16:38 | 23.37232 | -81.26852 | 12902 ft | 349 kts | 204° |
| 2026-05-06 16:38 | 23.35006 | -81.27919 | 12463 ft | 349 kts | 204° |
| 2026-05-06 16:39 | 23.32806 | -81.28974 | 12003 ft | 349 kts | 204° |
| 2026-05-06 16:39 | 23.30577 | -81.30043 | 11533 ft | 352 kts | 205° |
| 2026-05-06 16:39 | 23.28330 | -81.31121 | 11078 ft | 352 kts | 204° |
| 2026-05-06 16:39 | 23.26107 | -81.32177 | 10737 ft | 343 kts | 204° |
| 2026-05-06 16:40 | 23.23968 | -81.33198 | 10509 ft | 329 kts | 204° |
| 2026-05-06 16:40 | 23.21912 | -81.34180 | 10318 ft | 315 kts | 204° |
| 2026-05-06 16:40 | 23.19945 | -81.35122 | 10018 ft | 302 kts | 204° |
| 2026-05-06 16:40 | 23.18107 | -81.36160 | 9548 ft | 295 kts | 217° |
| 2026-05-06 16:41 | 23.16742 | -81.37791 | 9000 ft | 291 kts | 237° |
| 2026-05-06 16:41 | 23.15717 | -81.39650 | 8487 ft | 289 kts | 240° |
| 2026-05-06 16:41 | 23.14716 | -81.41547 | 7983 ft | 287 kts | 240° |
| 2026-05-06 16:41 | 23.13718 | -81.43420 | 7473 ft | 284 kts | 240° |
| 2026-05-06 16:42 | 23.12719 | -81.45267 | 6968 ft | 282 kts | 239° |
| 2026-05-06 16:42 | 23.11732 | -81.47067 | 6416 ft | 278 kts | 239° |
| 2026-05-06 16:42 | 23.10744 | -81.48869 | 5835 ft | 275 kts | 239° |
| 2026-05-06 16:42 | 23.09770 | -81.50656 | 5260 ft | 273 kts | 238° |
| 2026-05-06 16:43 | 23.08808 | -81.52399 | 4665 ft | 271 kts | 239° |
| 2026-05-06 16:43 | 23.07845 | -81.54147 | 4101 ft | 269 kts | 239° |
| 2026-05-06 16:43 | 23.06885 | -81.55878 | 3539 ft | 267 kts | 239° |
| 2026-05-06 16:43 | 23.05932 | -81.57603 | 3081 ft | 261 kts | 239° |
| 2026-05-06 16:44 | 23.04959 | -81.59230 | 2755 ft | 252 kts | 228° |
| 2026-05-06 16:44 | 23.03548 | -81.60318 | 2391 ft | 249 kts | 200° |
| 2026-05-06 16:44 | 23.01924 | -81.60551 | 2106 ft | 230 kts | 171° |
| 2026-05-06 16:44 | 23.00553 | -81.59938 | 2114 ft | 203 kts | 139° |
| 2026-05-06 16:45 | 22.99610 | -81.58940 | 2113 ft | 177 kts | 133° |
| 2026-05-06 16:45 | 22.98809 | -81.57984 | 2135 ft | 168 kts | 131° |
| 2026-05-06 16:45 | 22.98157 | -81.56948 | 2125 ft | 167 kts | 115° |
| 2026-05-06 16:45 | 22.97686 | -81.55803 | 2106 ft | 166 kts | 114° |
| 2026-05-06 16:46 | 22.97368 | -81.54611 | 2081 ft | 164 kts | 98° |
| 2026-05-06 16:46 | 22.97464 | -81.53494 | 2037 ft | 163 kts | 75° |
| 2026-05-06 16:46 | 22.97919 | -81.52371 | 1866 ft | 162 kts | 62° |
| 2026-05-06 16:46 | 22.98512 | -81.51333 | 1659 ft | 161 kts | 56° |
| 2026-05-06 16:47 | 22.99149 | -81.50320 | 1442 ft | 167 kts | 56° |
| 2026-05-06 16:47 | 22.99755 | -81.49358 | 1209 ft | 143 kts | 55° |
| 2026-05-06 16:47 | 23.00309 | -81.48482 | 1008 ft | 139 kts | 55° |
| 2026-05-06 16:47 | 23.00855 | -81.47616 | 833 ft | 138 kts | 55° |
| 2026-05-06 16:48 | 23.01400 | -81.46753 | 656 ft | 139 kts | 55° |
| 2026-05-06 16:48 | 23.01951 | -81.45888 | 473 ft | 140 kts | 56° |
| 2026-05-06 16:48 | 23.02506 | -81.44996 | 285 ft | 143 kts | 55° |
| 2026-05-06 16:48 | 23.03041 | -81.44160 | 225 ft | 124 kts | 56° |
| 2026-05-06 16:49 | 23.03421 | -81.43557 | 226 ft | 74 kts | 55° |
| 2026-05-06 16:49 | 23.03622 | -81.43246 | 226 ft | 20 kts | 54° |
| 2026-05-06 16:49 | 23.03728 | -81.43238 | 225 ft | 21 kts | 291° |
| 2026-05-06 16:49 | 23.03748 | -81.43270 | 225 ft | 5 kts | 305° |
| 2026-05-06 16:50 | 23.03772 | -81.43312 | 227 ft | 8 kts | 300° |
| 2026-05-06 16:50 | 23.03804 | -81.43372 | 226 ft | 10 kts | 300° |
| 2026-05-06 16:50 | 23.03783 | -81.43441 | 226 ft | 13 kts | 243° |
| 2026-05-06 16:50 | 23.03764 | -81.43502 | 226 ft | 1 kts | 264° |
| 2026-05-06 16:51 | 23.03764 | -81.43516 | 226 ft | 3 kts | 280° |
| 2026-05-06 16:51 | 23.03784 | -81.43541 | 226 ft | 6 kts | 323° |
| 2026-05-06 16:51 | 23.03824 | -81.43569 | 227 ft | 8 kts | 324° |
| 2026-05-06 16:51 | 23.03846 | -81.43584 | 226 ft | 0 kts | 332° |
| 2026-05-06 16:52 | 23.03847 | -81.43584 | 226 ft | 1 kts | 328° |
| 2026-05-06 16:52 | 23.03852 | -81.43588 | 227 ft | 0 kts | 328° |
| 2026-05-06 17:53 | 23.03841 | -81.43581 | 226 ft | 3 kts | 327° |
| 2026-05-06 17:53 | 23.03823 | -81.43568 | 226 ft | 4 kts | 325° |
| 2026-05-06 17:53 | 23.03806 | -81.43556 | 227 ft | 4 kts | 326° |
| 2026-05-06 17:53 | 23.03789 | -81.43544 | 226 ft | 4 kts | 332° |
| 2026-05-06 17:54 | 23.03771 | -81.43534 | 227 ft | 4 kts | 336° |
| 2026-05-06 17:54 | 23.03752 | -81.43526 | 226 ft | 4 kts | 342° |
| 2026-05-06 17:54 | 23.03743 | -81.43523 | 226 ft | 2 kts | 342° |
| 2026-05-06 17:57 | 23.03747 | -81.43523 | 226 ft | 2 kts | 3° |
| 2026-05-06 17:57 | 23.03761 | -81.43502 | 227 ft | 4 kts | 60° |
| 2026-05-06 17:58 | 23.03780 | -81.43469 | 227 ft | 6 kts | 58° |
| 2026-05-06 17:58 | 23.03805 | -81.43426 | 226 ft | 8 kts | 59° |
| 2026-05-06 17:58 | 23.03795 | -81.43366 | 226 ft | 9 kts | 120° |